createdAt,value
2022-08-17T00:00:33.240Z,18.94
2022-08-17T00:03:03.594Z,18.83
2022-08-17T00:05:34.919Z,18.73
2022-08-17T00:08:04.756Z,18.99
2022-08-17T00:10:32.602Z,18.93
2022-08-17T00:13:00.790Z,18.91
2022-08-17T00:15:28.676Z,18.80
2022-08-17T00:17:56.554Z,18.72
2022-08-17T00:20:30.511Z,18.58
2022-08-17T00:23:10.585Z,18.32
2022-08-17T00:25:39.007Z,18.21
2022-08-17T00:28:07.631Z,18.05
2022-08-17T00:30:48.668Z,18.13
2022-08-17T00:33:21.513Z,18.04
2022-08-17T00:35:49.720Z,17.88
2022-08-17T00:38:19.597Z,17.79
2022-08-17T00:40:50.459Z,17.83
2022-08-17T00:43:23.196Z,17.84
2022-08-17T00:45:51.126Z,17.72
2022-08-17T00:48:29.409Z,17.62
2022-08-17T00:51:03.836Z,17.37
2022-08-17T00:53:35.025Z,16.93
2022-08-17T00:56:07.217Z,16.85
2022-08-17T00:58:36.838Z,16.95
2022-08-17T01:01:06.858Z,17.04
2022-08-17T01:03:36.760Z,17.24
2022-08-17T01:06:07.148Z,17.34
2022-08-17T01:08:38.397Z,17.45
2022-08-17T01:11:07.243Z,17.49
2022-08-17T01:13:41.475Z,17.55
2022-08-17T01:16:16.599Z,17.51
2022-08-17T01:18:45.516Z,17.58
2022-08-17T01:21:21.219Z,17.60
2022-08-17T01:23:50.446Z,17.74
2022-08-17T01:26:19.315Z,17.71
2022-08-17T01:28:54.949Z,17.67
2022-08-17T01:31:25.776Z,17.71
2022-08-17T01:33:53.647Z,17.78
2022-08-17T01:36:21.890Z,17.80
2022-08-17T01:38:51.148Z,17.49
2022-08-17T01:41:22.493Z,16.93
2022-08-17T01:43:53.088Z,16.14
2022-08-17T01:46:24.460Z,15.91
2022-08-17T01:48:52.448Z,15.95
2022-08-17T01:51:21.231Z,16.16
2022-08-17T01:53:57.400Z,16.54
2022-08-17T01:56:27.014Z,16.88
2022-08-17T01:58:55.145Z,17.21
2022-08-17T02:01:26.467Z,17.34
2022-08-17T02:03:59.608Z,17.28
2022-08-17T02:06:29.354Z,17.22
2022-08-17T02:09:03.134Z,17.32
2022-08-17T02:11:33.000Z,17.32
2022-08-17T02:14:03.214Z,17.20
2022-08-17T02:16:37.162Z,17.11
2022-08-17T02:19:08.957Z,17.17
2022-08-17T02:21:36.957Z,17.04
2022-08-17T02:24:09.284Z,17.04
2022-08-17T02:26:37.187Z,17.24
2022-08-17T02:29:05.078Z,17.15
2022-08-17T02:31:33.034Z,16.97
2022-08-17T02:34:04.462Z,16.92
2022-08-17T02:36:33.740Z,17.02
2022-08-17T02:39:02.132Z,17.17
2022-08-17T02:41:31.507Z,17.35
2022-08-17T02:43:59.662Z,17.23
2022-08-17T02:46:28.217Z,17.07
2022-08-17T02:48:56.066Z,16.97
2022-08-17T02:51:23.913Z,17.01
2022-08-17T02:53:51.942Z,16.93
2022-08-17T02:56:19.826Z,16.70
2022-08-17T02:58:49.174Z,16.52
2022-08-17T03:01:17.344Z,16.57
2022-08-17T03:03:45.179Z,16.78
2022-08-17T03:06:13.063Z,16.89
2022-08-17T03:08:40.962Z,17.09
2022-08-17T03:11:08.762Z,17.14
2022-08-17T03:13:36.627Z,17.16
2022-08-17T03:16:06.420Z,17.23
2022-08-17T03:18:34.324Z,17.26
2022-08-17T03:21:04.667Z,17.34
2022-08-17T03:23:33.730Z,17.34
2022-08-17T03:26:02.251Z,17.29
2022-08-17T03:28:30.120Z,17.25
2022-08-17T03:30:57.994Z,17.24
2022-08-17T03:33:27.444Z,17.33
2022-08-17T03:35:55.305Z,17.28
2022-08-17T03:38:23.390Z,16.98
2022-08-17T03:40:56.942Z,16.73
2022-08-17T03:43:29.580Z,16.68
2022-08-17T03:46:28.810Z,16.71
2022-08-17T03:49:23.362Z,16.60
2022-08-17T03:52:09.170Z,16.66
2022-08-17T03:54:54.564Z,16.60
2022-08-17T03:57:22.725Z,16.82
2022-08-17T03:59:51.012Z,16.74
2022-08-17T04:02:21.963Z,16.88
2022-08-17T04:04:52.276Z,16.95
2022-08-17T04:07:21.019Z,17.02
2022-08-17T04:09:49.314Z,16.95
2022-08-17T04:12:18.115Z,16.55
2022-08-17T04:14:52.677Z,16.48
2022-08-17T04:17:22.795Z,16.36
2022-08-17T04:19:52.261Z,16.52
2022-08-17T04:22:31.964Z,16.77
2022-08-17T04:25:07.926Z,16.90
2022-08-17T04:27:36.069Z,17.04
2022-08-17T04:30:06.892Z,17.08
2022-08-17T04:33:10.931Z,17.23
2022-08-17T04:35:43.298Z,17.37
2022-08-17T04:38:14.863Z,17.39
2022-08-17T04:41:01.020Z,17.38
2022-08-17T04:43:30.939Z,17.32
2022-08-17T04:46:00.396Z,17.43
2022-08-17T04:48:36.430Z,17.46
2022-08-17T04:51:10.353Z,17.40
2022-08-17T04:53:39.712Z,17.40
2022-08-17T04:56:08.032Z,17.41
2022-08-17T04:58:44.747Z,17.41
2022-08-17T05:01:12.945Z,17.49
2022-08-17T05:03:41.176Z,17.61
2022-08-17T05:06:10.760Z,17.63
2022-08-17T05:08:38.796Z,17.52
2022-08-17T05:11:06.995Z,17.64
2022-08-17T05:13:35.050Z,17.63
2022-08-17T05:16:04.539Z,17.83
2022-08-17T05:18:33.197Z,17.88
2022-08-17T05:21:01.384Z,17.94
2022-08-17T05:23:37.838Z,18.02
2022-08-17T05:26:25.432Z,18.14
2022-08-17T05:28:53.810Z,18.12
2022-08-17T05:31:22.135Z,18.27
2022-08-17T05:33:49.944Z,18.48
2022-08-17T05:36:42.950Z,18.55
2022-08-17T05:39:07.546Z,18.62
2022-08-17T05:41:35.401Z,18.72
2022-08-17T05:44:05.524Z,18.80
2022-08-17T05:46:40.957Z,18.93
2022-08-17T05:49:11.241Z,18.95
2022-08-17T05:51:56.621Z,18.94
2022-08-17T05:54:35.444Z,18.98
2022-08-17T05:57:27.123Z,19.10
2022-08-17T06:00:05.641Z,19.22
2022-08-17T06:02:51.972Z,19.29
2022-08-17T06:05:47.749Z,19.47
2022-08-17T06:08:24.397Z,19.60
2022-08-17T06:11:00.540Z,19.73
2022-08-17T06:13:48.834Z,19.80
2022-08-17T06:16:33.643Z,19.93
2022-08-17T06:19:07.549Z,20.04
2022-08-17T06:21:39.563Z,20.11
2022-08-17T06:24:19.349Z,20.23
2022-08-17T06:26:49.200Z,20.29
2022-08-17T06:29:37.138Z,20.41
2022-08-17T06:32:06.373Z,20.50
2022-08-17T06:34:34.998Z,20.61
2022-08-17T06:37:14.871Z,20.61
2022-08-17T06:39:58.844Z,20.83
2022-08-17T06:42:54.882Z,20.95
2022-08-17T06:45:32.199Z,20.92
2022-08-17T06:48:05.824Z,20.93
2022-08-17T06:50:37.923Z,21.03
2022-08-17T06:53:14.713Z,21.11
2022-08-17T06:55:47.825Z,21.31
2022-08-17T06:58:22.285Z,21.40
2022-08-17T07:00:58.072Z,21.44
2022-08-17T07:03:37.879Z,21.38
2022-08-17T07:06:09.989Z,21.51
2022-08-17T07:08:50.265Z,21.61
2022-08-17T07:11:21.719Z,21.78
2022-08-17T07:13:59.002Z,21.97
2022-08-17T07:16:32.082Z,22.09
2022-08-17T07:19:00.297Z,21.97
2022-08-17T07:21:40.854Z,22.14
2022-08-17T07:24:29.652Z,22.14
2022-08-17T07:27:11.814Z,22.20
2022-08-17T07:29:46.814Z,22.36
2022-08-17T07:32:18.499Z,22.44
2022-08-17T07:35:11.195Z,22.59
2022-08-17T07:37:41.011Z,22.77
2022-08-17T07:40:31.978Z,22.96
2022-08-17T07:43:23.074Z,23.01
2022-08-17T07:46:24.837Z,22.99
2022-08-17T07:48:55.247Z,23.11
2022-08-17T07:51:26.990Z,23.30
2022-08-17T07:54:13.060Z,23.20
2022-08-17T07:56:45.662Z,23.24
2022-08-17T07:59:18.080Z,23.28
2022-08-17T08:02:17.098Z,23.39
2022-08-17T08:05:03.582Z,23.59
2022-08-17T08:07:38.471Z,23.69
2022-08-17T08:10:11.132Z,23.73
2022-08-17T08:12:41.504Z,23.70
2022-08-17T08:15:18.527Z,23.69
2022-08-17T08:17:52.182Z,23.89
2022-08-17T08:20:50.958Z,23.89
2022-08-17T08:23:30.503Z,24.06
2022-08-17T08:26:13.144Z,24.12
2022-08-17T08:28:47.345Z,24.04
2022-08-17T08:31:25.255Z,24.18
2022-08-17T08:34:08.030Z,24.34
2022-08-17T08:37:17.627Z,24.26
2022-08-17T08:39:58.898Z,24.62
2022-08-17T08:42:37.193Z,25.02
2022-08-17T08:45:13.620Z,24.94
2022-08-17T08:48:02.373Z,24.87
2022-08-17T08:50:45.995Z,25.12
2022-08-17T08:53:24.903Z,25.31
2022-08-17T08:55:56.861Z,25.29
2022-08-17T08:58:41.602Z,25.21
2022-08-17T09:01:19.566Z,25.34
2022-08-17T09:04:27.522Z,25.44
2022-08-17T09:07:10.788Z,25.55
2022-08-17T09:09:49.733Z,25.59
2022-08-17T09:12:27.443Z,25.95
2022-08-17T09:15:02.407Z,26.22
2022-08-17T09:17:38.406Z,26.56
2022-08-17T09:20:27.147Z,26.88
2022-08-17T09:23:04.396Z,26.92
2022-08-17T09:25:36.020Z,26.95
2022-08-17T09:28:07.261Z,26.88
2022-08-17T09:30:42.302Z,26.86
2022-08-17T09:33:14.083Z,26.93
2022-08-17T09:35:46.012Z,27.13
2022-08-17T09:38:23.140Z,26.99
2022-08-17T09:40:55.760Z,27.37
2022-08-17T09:43:33.382Z,27.56
2022-08-17T09:46:05.000Z,27.99
2022-08-17T09:48:39.632Z,28.02
2022-08-17T09:51:12.016Z,27.64
2022-08-17T09:53:44.750Z,27.40
2022-08-17T09:56:27.149Z,27.72
2022-08-17T09:59:17.113Z,27.91
2022-08-17T10:01:52.917Z,28.21
2022-08-17T10:04:40.859Z,28.51
2022-08-17T10:07:16.916Z,28.76
2022-08-17T10:09:58.398Z,29.09
2022-08-17T10:12:37.108Z,28.54
2022-08-17T10:15:18.819Z,28.82
2022-08-17T10:18:03.996Z,29.31
2022-08-17T10:20:43.260Z,29.39
2022-08-17T10:23:34.656Z,29.26
2022-08-17T10:26:14.848Z,29.06
2022-08-17T10:28:49.702Z,29.12
2022-08-17T10:31:35.632Z,29.37
2022-08-17T10:34:27.842Z,29.20
2022-08-17T10:37:06.733Z,29.27
2022-08-17T10:39:52.344Z,29.36
2022-08-17T10:42:32.833Z,29.02
2022-08-17T10:45:06.263Z,28.82
2022-08-17T10:48:05.043Z,28.66
2022-08-17T10:50:48.009Z,28.87
2022-08-17T10:53:51.638Z,29.45
2022-08-17T10:56:23.754Z,29.26
2022-08-17T10:58:55.540Z,29.79
2022-08-17T11:01:53.411Z,30.14
2022-08-17T11:04:30.382Z,30.02
2022-08-17T11:07:07.221Z,29.62
2022-08-17T11:10:04.562Z,30.01
2022-08-17T11:12:42.621Z,30.28
2022-08-17T11:15:35.023Z,30.05
2022-08-17T11:18:17.696Z,29.94
2022-08-17T11:21:09.788Z,29.80
2022-08-17T11:23:57.233Z,29.36
2022-08-17T11:26:28.365Z,29.33
2022-08-17T11:29:02.080Z,29.59
2022-08-17T11:31:39.881Z,29.85
2022-08-17T11:34:15.211Z,30.38
2022-08-17T11:37:21.695Z,30.76
2022-08-17T11:40:07.544Z,30.27
2022-08-17T11:42:50.430Z,30.41
2022-08-17T11:45:34.052Z,30.02
2022-08-17T11:48:30.579Z,29.72
2022-08-17T11:51:24.428Z,30.07
2022-08-17T11:57:02.201Z,30.36
2022-08-17T11:59:59.508Z,30.60
2022-08-17T12:02:47.386Z,31.24
2022-08-17T12:05:35.133Z,31.14
2022-08-17T12:08:17.741Z,31.50
2022-08-17T12:10:56.521Z,31.20
2022-08-17T12:13:30.599Z,31.18
2022-08-17T12:16:07.249Z,31.18
2022-08-17T12:18:39.423Z,31.49
2022-08-17T12:21:22.155Z,31.75
2022-08-17T12:23:58.211Z,31.53
2022-08-17T12:26:30.359Z,31.95
2022-08-17T12:29:01.879Z,32.29
2022-08-17T12:31:34.752Z,31.81
2022-08-17T12:34:03.380Z,31.37
2022-08-17T12:36:34.716Z,31.33
2022-08-17T12:39:13.820Z,31.51
2022-08-17T12:41:46.692Z,31.50
2022-08-17T12:44:17.209Z,31.66
2022-08-17T12:46:49.463Z,31.58
2022-08-17T12:49:27.454Z,31.35
2022-08-17T12:52:04.273Z,31.48
2022-08-17T12:54:39.994Z,31.63
2022-08-17T12:57:14.474Z,31.99
2022-08-17T12:59:46.220Z,32.39
2022-08-17T13:02:28.274Z,32.74
2022-08-17T13:04:58.133Z,32.73
2022-08-17T13:07:35.102Z,32.45
2022-08-17T13:10:05.389Z,32.44
2022-08-17T13:12:35.822Z,32.92
2022-08-17T13:15:04.107Z,32.76
2022-08-17T13:17:35.343Z,32.49
2022-08-17T13:20:05.992Z,32.09
2022-08-17T13:22:35.219Z,31.67
2022-08-17T13:25:08.447Z,31.12
2022-08-17T13:27:36.415Z,30.97
2022-08-17T13:30:11.862Z,30.54
2022-08-17T13:32:44.061Z,30.69
2022-08-17T13:35:40.985Z,30.59
2022-08-17T13:38:12.832Z,30.97
2022-08-17T13:40:45.343Z,30.77
2022-08-17T13:43:13.403Z,30.66
2022-08-17T13:45:50.580Z,30.58
2022-08-17T13:48:28.209Z,30.74
2022-08-17T13:51:20.987Z,31.04
2022-08-17T13:54:08.310Z,30.79
2022-08-17T13:56:47.977Z,31.08
2022-08-17T13:59:36.418Z,31.20
2022-08-17T14:02:14.800Z,31.22
2022-08-17T14:04:45.633Z,31.05
2022-08-17T14:07:39.045Z,31.28
2022-08-17T14:10:13.585Z,31.29
2022-08-17T14:12:43.554Z,31.70
2022-08-17T14:15:13.061Z,32.32
2022-08-17T14:17:40.926Z,32.24
2022-08-17T14:20:12.227Z,32.11
2022-08-17T14:22:43.878Z,31.98
2022-08-17T14:25:14.891Z,32.06
2022-08-17T14:27:52.262Z,31.89
2022-08-17T14:30:23.733Z,32.08
2022-08-17T14:32:52.822Z,32.25
2022-08-17T14:35:23.134Z,32.12
2022-08-17T14:37:51.381Z,31.88
2022-08-17T14:40:23.549Z,32.23
2022-08-17T14:42:52.967Z,32.36
2022-08-17T14:45:29.994Z,32.28
2022-08-17T14:48:03.919Z,32.25
2022-08-17T14:50:32.116Z,32.46
2022-08-17T14:53:04.353Z,32.63
2022-08-17T14:55:33.889Z,32.56
2022-08-17T14:58:01.800Z,32.52
2022-08-17T15:00:29.663Z,32.55
2022-08-17T15:03:00.246Z,32.76
2022-08-17T15:05:31.531Z,32.92
2022-08-17T15:07:59.916Z,32.69
2022-08-17T15:10:27.833Z,32.48
2022-08-17T15:12:57.290Z,32.59
2022-08-17T15:15:25.755Z,32.17
2022-08-17T15:17:53.717Z,32.01
2022-08-17T15:20:24.186Z,32.31
2022-08-17T15:22:55.046Z,32.37
2022-08-17T15:25:23.173Z,32.54
2022-08-17T15:27:51.636Z,32.60
2022-08-17T15:30:21.548Z,32.93
2022-08-17T15:32:55.347Z,32.71
2022-08-17T15:35:27.899Z,32.64
2022-08-17T15:37:58.179Z,32.48
2022-08-17T15:40:26.664Z,32.53
2022-08-17T15:42:54.840Z,32.36
2022-08-17T15:45:26.636Z,32.60
2022-08-17T15:47:54.528Z,32.91
2022-08-17T15:50:22.452Z,32.97
2022-08-17T15:52:57.270Z,32.87
2022-08-17T15:55:27.347Z,32.75
2022-08-17T15:58:04.604Z,32.64
2022-08-17T16:00:36.393Z,32.33
2022-08-17T16:04:01.396Z,32.12
2022-08-17T16:06:08.684Z,31.93
2022-08-17T16:08:41.525Z,31.71
2022-08-17T16:11:10.558Z,31.59
2022-08-17T16:13:38.772Z,31.62
2022-08-17T16:16:08.498Z,31.45
2022-08-17T16:18:36.945Z,31.46
2022-08-17T16:21:21.674Z,31.44
2022-08-17T16:23:51.413Z,31.50
2022-08-17T16:26:20.067Z,31.38
2022-08-17T16:28:48.103Z,31.25
2022-08-17T16:31:17.682Z,31.23
2022-08-17T16:33:56.892Z,31.13
2022-08-17T16:36:33.542Z,31.28
2022-08-17T16:39:01.445Z,31.40
2022-08-17T16:41:44.953Z,31.38
2022-08-17T16:44:15.306Z,31.25
2022-08-17T16:46:46.075Z,31.19
2022-08-17T16:49:31.568Z,31.00
2022-08-17T16:52:03.937Z,30.86
2022-08-17T16:54:31.903Z,30.69
2022-08-17T16:57:00.223Z,30.66
2022-08-17T16:59:31.165Z,30.55
2022-08-17T17:02:11.212Z,30.42
2022-08-17T17:04:47.442Z,30.35
2022-08-17T17:07:33.812Z,30.22
2022-08-17T17:10:05.379Z,30.07
2022-08-17T17:13:01.041Z,29.90
2022-08-17T17:15:25.526Z,29.89
2022-08-17T17:18:06.790Z,29.79
2022-08-17T17:20:43.721Z,29.83
2022-08-17T17:23:31.232Z,29.84
2022-08-17T17:26:06.549Z,29.76
2022-08-17T17:28:43.233Z,29.69
2022-08-17T17:31:15.665Z,29.61
2022-08-17T17:33:48.437Z,29.52
2022-08-17T17:36:25.435Z,29.50
2022-08-17T17:38:55.385Z,29.46
2022-08-17T17:41:29.174Z,29.29
2022-08-17T17:44:03.709Z,29.07
2022-08-17T17:46:35.161Z,28.81
2022-08-17T17:49:06.049Z,28.70
2022-08-17T17:52:09.263Z,28.57
2022-08-17T17:54:40.425Z,28.38
2022-08-17T17:57:22.197Z,28.27
2022-08-17T17:59:58.249Z,28.16
2022-08-17T18:02:52.610Z,28.01
2022-08-17T18:06:01.219Z,27.80
2022-08-17T18:08:48.108Z,27.65
2022-08-17T18:11:34.941Z,27.52
2022-08-17T18:14:26.932Z,27.38
2022-08-17T18:16:57.308Z,27.31
2022-08-17T18:19:28.068Z,27.21
2022-08-17T18:22:06.697Z,27.04
2022-08-17T18:24:37.922Z,26.89
2022-08-17T18:27:19.436Z,26.73
2022-08-17T18:29:49.247Z,26.58
2022-08-17T18:32:28.170Z,26.44
2022-08-17T18:34:58.856Z,26.31
2022-08-17T18:37:42.576Z,26.15
2022-08-17T18:40:38.054Z,26.02
2022-08-17T18:43:23.150Z,25.89
2022-08-17T18:45:53.375Z,25.81
2022-08-17T18:48:33.103Z,25.74
2022-08-17T18:51:07.403Z,25.60
2022-08-17T18:53:39.665Z,25.49
2022-08-17T18:56:22.410Z,25.38
2022-08-17T18:59:02.032Z,25.35
2022-08-17T19:01:41.682Z,25.22
2022-08-17T19:04:36.729Z,25.08
2022-08-17T19:07:25.630Z,24.97
2022-08-17T19:10:03.704Z,24.90
2022-08-17T19:12:38.049Z,24.75
2022-08-17T19:15:09.271Z,24.68
2022-08-17T19:17:43.823Z,24.65
2022-08-17T19:20:18.495Z,24.68
2022-08-17T19:23:04.001Z,24.74
2022-08-17T19:25:37.105Z,24.81
2022-08-17T19:28:21.509Z,24.89
2022-08-17T19:30:51.104Z,24.88
2022-08-17T19:33:19.411Z,24.85
2022-08-17T19:35:53.293Z,24.80
2022-08-17T19:38:31.374Z,24.75
2022-08-17T19:41:12.786Z,24.76
2022-08-17T19:44:05.941Z,24.81
2022-08-17T19:46:50.033Z,24.87
2022-08-17T19:49:41.012Z,24.91
2022-08-17T19:52:25.018Z,24.87
2022-08-17T19:55:01.628Z,24.86
2022-08-17T19:57:44.896Z,24.87
2022-08-17T20:00:15.857Z,24.90
2022-08-17T20:02:54.736Z,24.89
2022-08-17T20:05:26.560Z,24.91
2022-08-17T20:07:58.996Z,24.92
2022-08-17T20:10:39.268Z,24.96
2022-08-17T20:13:12.071Z,24.98
2022-08-17T20:15:42.832Z,24.94
2022-08-17T20:18:18.390Z,24.86
2022-08-17T20:20:56.277Z,24.77
2022-08-17T20:23:44.570Z,24.65
2022-08-17T20:29:36.821Z,24.55
2022-08-17T20:32:19.787Z,24.51
2022-08-17T20:34:48.965Z,24.52
2022-08-17T20:37:31.114Z,24.57
2022-08-17T20:40:33.288Z,24.63
2022-08-17T20:43:39.772Z,24.66
2022-08-17T20:46:24.682Z,24.62
2022-08-17T20:48:56.863Z,24.63
2022-08-17T20:51:31.439Z,24.63
2022-08-17T20:54:25.054Z,24.61
2022-08-17T20:56:57.719Z,24.67
2022-08-17T20:59:58.320Z,24.74
2022-08-17T21:02:29.473Z,24.79
2022-08-17T21:05:07.247Z,24.81
2022-08-17T21:07:54.526Z,24.74
2022-08-17T21:10:34.089Z,24.70
2022-08-17T21:13:23.705Z,24.64
2022-08-17T21:15:59.262Z,24.55
2022-08-17T21:18:38.756Z,24.51
2022-08-17T21:21:29.023Z,24.48
2022-08-17T21:24:11.825Z,24.42
2022-08-17T21:26:53.698Z,24.41
2022-08-17T21:29:30.994Z,24.41
2022-08-17T21:32:21.831Z,24.40
2022-08-17T21:35:26.700Z,24.43
2022-08-17T21:37:59.711Z,24.45
2022-08-17T21:40:30.902Z,24.45
2022-08-17T21:43:04.840Z,24.48
2022-08-17T21:45:36.423Z,24.51
2022-08-17T21:48:12.708Z,24.50
2022-08-17T21:50:45.817Z,24.52
2022-08-17T21:53:28.124Z,24.47
2022-08-17T21:55:58.646Z,24.38
2022-08-17T21:58:31.366Z,24.29
2022-08-17T22:01:20.423Z,24.15
2022-08-17T22:03:56.666Z,24.04
2022-08-17T22:06:28.384Z,23.95
2022-08-17T22:09:02.286Z,23.93
2022-08-17T22:11:30.452Z,23.79
2022-08-17T22:14:05.246Z,23.76
2022-08-17T22:16:34.396Z,23.75
2022-08-17T22:19:02.584Z,23.94
2022-08-17T22:21:31.785Z,23.92
2022-08-17T22:24:04.612Z,23.91
2022-08-17T22:27:00.008Z,23.52
2022-08-17T22:29:56.856Z,23.31
2022-08-17T22:32:38.786Z,22.77
2022-08-17T22:35:36.567Z,22.41
2022-08-17T22:38:29.273Z,22.26
2022-08-17T22:41:13.584Z,21.88
2022-08-17T22:43:44.825Z,21.42
2022-08-17T22:46:14.959Z,21.41
2022-08-17T22:48:50.129Z,21.21
2022-08-17T22:51:21.379Z,20.68
2022-08-17T22:54:11.030Z,20.62
2022-08-17T22:56:57.227Z,20.26
2022-08-17T22:59:44.217Z,19.94
2022-08-17T23:02:20.485Z,19.83
2022-08-17T23:04:51.203Z,19.72
2022-08-17T23:07:19.935Z,19.78
2022-08-17T23:09:49.260Z,19.67
2022-08-17T23:12:23.662Z,19.70
2022-08-17T23:14:58.476Z,19.51
2022-08-17T23:17:27.523Z,19.58
2022-08-17T23:19:56.953Z,19.48
2022-08-17T23:22:25.419Z,19.53
2022-08-17T23:24:55.029Z,19.62
2022-08-17T23:27:23.152Z,19.65
2022-08-17T23:29:51.450Z,19.75
2022-08-17T23:32:19.767Z,19.77
2022-08-17T23:34:50.327Z,19.75
2022-08-17T23:37:19.823Z,19.66
2022-08-17T23:39:47.739Z,19.66
2022-08-17T23:42:21.803Z,19.72
2022-08-17T23:44:50.014Z,19.71
2022-08-17T23:47:17.928Z,19.67
2022-08-17T23:49:45.786Z,19.74
2022-08-17T23:52:16.620Z,19.68
2022-08-17T23:54:46.716Z,19.61
2022-08-17T23:57:18.160Z,19.73
2022-08-17T23:59:46.485Z,19.64
